Time;durP1;ratioP1;P1;durP2;ratioP2;P2;SDS_P1;SDS_P2;PMS_P1;PMS_P2;Temp;Humidity;BMP_temperature;BMP_pressure;BME280_temperature;BME280_humidity;BME280_pressure;Samples;Min_cycle;Max_cycle;Signal;HPM_P1;HPM_P2
2024/01/08 00:01:30;;;;;;;1.00;0.70;;;-1.40;99.90;;;;;;5015462;28;20411;-84
2024/01/08 00:03:55;;;;;;;3.30;0.83;;;-1.40;99.90;;;;;;5014231;28;20445;-84
2024/01/08 00:06:21;;;;;;;2.13;0.80;;;-1.40;99.90;;;;;;5018388;28;20214;-87
2024/01/08 00:08:46;;;;;;;1.63;0.80;;;-1.50;99.90;;;;;;5011178;28;20237;-82
2024/01/08 00:11:12;;;;;;;1.33;0.97;;;-1.40;99.90;;;;;;5011301;28;20190;-84
2024/01/08 00:13:37;;;;;;;1.80;0.80;;;-1.40;99.90;;;;;;5015168;28;20285;-82
2024/01/08 00:16:03;;;;;;;1.43;0.70;;;-1.40;99.90;;;;;;5020538;28;20569;-82
2024/01/08 00:18:29;;;;;;;1.77;1.67;;;-1.40;99.90;;;;;;5013112;28;20213;-81
2024/01/08 00:20:56;;;;;;;1.90;1.43;;;-1.40;99.90;;;;;;5018226;28;20182;-81
2024/01/08 00:23:21;;;;;;;2.72;1.30;;;-1.40;99.90;;;;;;5012550;28;21119;-82
2024/01/08 00:25:47;;;;;;;2.33;1.17;;;-1.40;99.90;;;;;;5016579;28;20193;-82
2024/01/08 00:28:13;;;;;;;1.70;1.33;;;-1.40;99.90;;;;;;5017736;28;20453;-86
2024/01/08 00:30:38;;;;;;;4.13;3.73;;;-1.40;99.90;;;;;;5019228;28;20190;-82
2024/01/08 00:33:04;;;;;;;9.60;2.27;;;-1.30;99.90;;;;;;5018229;28;20680;-81
2024/01/08 00:35:30;;;;;;;3.50;2.20;;;-1.20;99.90;;;;;;5007812;28;20185;-81
2024/01/08 00:37:55;;;;;;;1.27;1.10;;;-1.30;99.90;;;;;;5009006;28;20225;-81
2024/01/08 00:40:21;;;;;;;1.90;0.83;;;-1.30;99.90;;;;;;5024911;28;20190;-79
2024/01/08 00:42:46;;;;;;;2.90;1.23;;;-1.20;99.90;;;;;;5012501;28;20195;-83
2024/01/08 00:45:12;;;;;;;1.20;1.10;;;-1.20;99.90;;;;;;5007816;28;20196;-82
2024/01/08 00:47:37;;;;;;;1.73;1.00;;;-1.20;99.90;;;;;;4999463;28;20373;-82
2024/01/08 00:50:04;;;;;;;1.17;0.90;;;-1.20;99.90;;;;;;5007992;28;20194;-83
2024/01/08 00:52:29;;;;;;;6.90;2.10;;;-1.20;99.90;;;;;;5012555;28;20671;-81
2024/01/08 00:54:57;;;;;;;1.03;1.03;;;-1.20;99.90;;;;;;5013395;28;20201;-81
2024/01/08 00:57:22;;;;;;;0.45;0.45;;;-1.20;99.90;;;;;;5016868;28;20225;-82
2024/01/08 00:59:48;;;;;;;2.27;1.13;;;-1.20;99.90;;;;;;5011669;28;20178;-83
2024/01/08 01:02:14;;;;;;;2.57;1.80;;;-1.30;99.90;;;;;;5017007;28;20182;-80
2024/01/08 01:04:39;;;;;;;2.73;1.70;;;-1.20;99.90;;;;;;5006479;28;20213;-80
2024/01/08 01:07:05;;;;;;;1.17;0.63;;;-1.10;99.90;;;;;;5017446;28;20267;-80
2024/01/08 01:09:30;;;;;;;0.80;0.80;;;-1.20;99.90;;;;;;5010787;28;20187;-83
2024/01/08 01:11:57;;;;;;;2.70;0.80;;;-1.20;99.90;;;;;;5011309;28;20193;-82
2024/01/08 01:14:22;;;;;;;3.38;1.73;;;-1.20;99.90;;;;;;5011516;28;20185;-83
2024/01/08 01:16:48;;;;;;;2.23;1.70;;;-1.20;99.90;;;;;;5017939;28;20212;-81
2024/01/08 01:19:13;;;;;;;3.43;1.50;;;-1.20;99.90;;;;;;5013605;28;20603;-78
2024/01/08 01:21:39;;;;;;;1.20;1.10;;;-1.20;99.90;;;;;;5028708;28;20212;-82
2024/01/08 01:24:05;;;;;;;0.40;0.33;;;-1.20;99.90;;;;;;5014268;28;20189;-83
2024/01/08 01:26:30;;;;;;;1.70;1.30;;;-1.10;99.90;;;;;;5020988;28;20220;-82
2024/01/08 01:28:56;;;;;;;7.70;1.77;;;-1.20;99.90;;;;;;5014362;28;20252;-84
2024/01/08 01:31:21;;;;;;;4.17;1.93;;;-1.20;99.90;;;;;;5030601;28;20187;-85
2024/01/08 01:33:47;;;;;;;2.60;1.00;;;-1.10;99.90;;;;;;5012246;28;20179;-83
2024/01/08 01:36:12;;;;;;;0.93;0.93;;;-1.20;99.90;;;;;;5011995;28;20202;-83
2024/01/08 01:38:38;;;;;;;2.57;1.47;;;-1.20;99.90;;;;;;5004327;28;20241;-82
2024/01/08 01:41:04;;;;;;;1.13;0.80;;;-1.20;99.90;;;;;;5011336;28;20229;-84
2024/01/08 01:43:29;;;;;;;1.07;0.90;;;-1.10;99.90;;;;;;5010428;28;20189;-82
2024/01/08 01:45:59;;;;;;;1.20;0.70;;;-1.10;99.90;;;;;;5017448;28;20201;-80
2024/01/08 01:48:27;;;;;;;1.75;1.42;;;-1.10;99.90;;;;;;5015535;28;20218;-83
2024/01/08 01:50:53;;;;;;;0.60;0.60;;;-1.10;99.90;;;;;;5017844;28;20291;-82
2024/01/08 01:53:19;;;;;;;0.50;0.50;;;-1.10;99.90;;;;;;5016465;28;20864;-82
2024/01/08 01:55:46;;;;;;;2.25;1.30;;;-1.10;99.90;;;;;;5011767;28;20194;-83
2024/01/08 01:58:13;;;;;;;1.70;1.20;;;-1.10;99.90;;;;;;5015474;28;20216;-82
2024/01/08 02:00:39;;;;;;;1.45;1.45;;;-1.10;99.90;;;;;;5015010;28;20357;-85
2024/01/08 02:03:06;;;;;;;0.82;0.82;;;-1.20;99.90;;;;;;5011531;28;20190;-85
2024/01/08 02:05:32;;;;;;;0.70;0.68;;;-1.10;99.90;;;;;;5016803;28;20586;-85
2024/01/08 02:07:58;;;;;;;1.80;1.55;;;-1.10;99.90;;;;;;5012644;28;20325;-81
2024/01/08 02:10:25;;;;;;;1.73;0.90;;;-1.10;99.90;;;;;;5010114;28;20747;-86
2024/01/08 02:12:51;;;;;;;4.50;1.17;;;-1.10;99.90;;;;;;5016002;28;20276;-86
2024/01/08 02:15:17;;;;;;;1.37;1.27;;;-1.20;99.90;;;;;;5008771;28;20254;-83
2024/01/08 02:17:42;;;;;;;1.17;1.03;;;-1.20;99.90;;;;;;5012262;28;20220;-82
2024/01/08 02:20:08;;;;;;;2.43;1.90;;;-1.20;99.90;;;;;;5010892;28;20228;-82
2024/01/08 02:22:43;;;;;;;1.20;1.10;;;-1.10;99.90;;;;;;5016525;28;20190;-84
2024/01/08 02:25:09;;;;;;;3.08;1.40;;;-1.10;99.90;;;;;;5019261;28;20570;-84
2024/01/08 02:27:35;;;;;;;2.78;1.95;;;-1.20;99.90;;;;;;5020193;28;20238;-83
2024/01/08 02:30:00;;;;;;;0.80;0.50;;;-1.10;99.90;;;;;;5022052;28;20216;-83
2024/01/08 02:32:26;;;;;;;3.47;2.67;;;-1.10;99.90;;;;;;5014699;28;20557;-81
2024/01/08 02:34:51;;;;;;;1.50;0.90;;;-1.10;99.90;;;;;;5005904;28;20197;-83
2024/01/08 02:37:17;;;;;;;1.00;0.90;;;-1.10;99.90;;;;;;5010865;28;20206;-79
2024/01/08 02:39:42;;;;;;;2.00;1.30;;;-1.10;99.90;;;;;;5014500;28;20355;-84
2024/01/08 02:42:08;;;;;;;1.33;0.87;;;-1.00;99.90;;;;;;5010295;28;20191;-80
2024/01/08 02:44:33;;;;;;;3.13;1.53;;;-1.00;99.90;;;;;;5010123;28;20195;-82
2024/01/08 02:46:59;;;;;;;2.67;1.07;;;-1.00;99.90;;;;;;5009699;28;20224;-82
2024/01/08 02:49:27;;;;;;;2.50;2.03;;;-1.00;99.90;;;;;;5003542;28;20228;-80
2024/01/08 02:51:52;;;;;;;2.13;0.93;;;-1.00;99.90;;;;;;5020663;28;20178;-80
2024/01/08 02:54:18;;;;;;;1.17;1.07;;;-1.00;99.90;;;;;;5029161;28;20198;-79
2024/01/08 02:56:43;;;;;;;1.37;1.27;;;-1.00;99.90;;;;;;5012984;28;20646;-83
2024/01/08 02:59:09;;;;;;;6.83;2.53;;;-1.00;99.90;;;;;;5018648;28;20192;-83
2024/01/08 03:01:36;;;;;;;1.17;1.07;;;-1.00;99.90;;;;;;5018491;28;20772;-82
2024/01/08 03:04:01;;;;;;;2.95;0.65;;;-1.00;99.90;;;;;;5028122;28;20473;-84
2024/01/08 03:06:27;;;;;;;2.10;1.27;;;-1.00;99.90;;;;;;5034048;28;20224;-82
2024/01/08 03:08:52;;;;;;;1.60;1.50;;;-1.00;99.90;;;;;;5028363;28;20196;-88
2024/01/08 03:11:18;;;;;;;0.97;0.97;;;-1.00;99.90;;;;;;5013440;28;20224;-83
2024/01/08 03:13:43;;;;;;;1.63;1.10;;;-1.00;99.90;;;;;;5016658;28;20198;-83
2024/01/08 03:16:10;;;;;;;4.67;2.07;;;-1.00;99.90;;;;;;5017354;28;20228;-82
2024/01/08 03:18:35;;;;;;;2.42;1.65;;;-1.00;99.90;;;;;;5021162;28;20292;-82
2024/01/08 03:21:00;;;;;;;1.07;1.03;;;-1.00;99.90;;;;;;5016024;28;20217;-84
2024/01/08 03:23:26;;;;;;;1.33;1.20;;;-0.90;99.90;;;;;;5014808;28;20190;-82
2024/01/08 03:25:51;;;;;;;1.47;1.13;;;-0.90;99.90;;;;;;5012333;28;20208;-83
2024/01/08 03:28:17;;;;;;;1.03;1.03;;;-0.90;99.90;;;;;;5015411;28;20212;-81
2024/01/08 03:30:42;;;;;;;0.97;0.97;;;-1.00;99.90;;;;;;5012847;28;20851;-82
2024/01/08 03:33:08;;;;;;;0.57;0.57;;;-0.90;99.90;;;;;;5013111;28;20189;-82
2024/01/08 03:35:34;;;;;;;1.03;0.90;;;-1.00;99.90;;;;;;5014875;28;20193;-80
2024/01/08 03:38:00;;;;;;;1.30;1.20;;;-1.00;99.90;;;;;;5012143;28;20468;-82
2024/01/08 03:40:25;;;;;;;0.90;0.80;;;-1.00;99.90;;;;;;5013725;28;20204;-85
2024/01/08 03:42:51;;;;;;;3.10;2.00;;;-1.10;99.90;;;;;;5016336;28;20214;-83
2024/01/08 03:45:16;;;;;;;1.87;1.70;;;-1.10;99.90;;;;;;5016023;28;20786;-81
2024/01/08 03:47:42;;;;;;;2.70;1.40;;;-1.00;99.90;;;;;;5012015;28;20785;-82
2024/01/08 03:50:08;;;;;;;1.07;0.90;;;-1.00;99.90;;;;;;5012235;28;20182;-80
2024/01/08 03:52:33;;;;;;;0.70;0.70;;;-1.00;99.90;;;;;;5019863;28;20187;-81
2024/01/08 03:54:59;;;;;;;0.70;0.70;;;-1.00;99.90;;;;;;5017834;28;20519;-84
2024/01/08 03:57:24;;;;;;;0.57;0.57;;;-1.00;99.90;;;;;;5021050;28;20700;-82
2024/01/08 03:59:50;;;;;;;0.80;0.80;;;-1.10;99.90;;;;;;5017163;28;20228;-83
2024/01/08 04:02:16;;;;;;;7.27;2.13;;;-1.00;99.90;;;;;;5018796;28;20196;-80
2024/01/08 04:04:42;;;;;;;1.00;0.87;;;-1.00;99.90;;;;;;5017140;28;21258;-83
2024/01/08 04:07:09;;;;;;;5.18;1.17;;;-1.10;99.90;;;;;;5015977;28;20480;-84
2024/01/08 04:09:38;;;;;;;1.52;1.30;;;-1.10;99.90;;;;;;5012191;28;20249;-83
2024/01/08 04:12:04;;;;;;;1.45;1.35;;;-1.10;99.90;;;;;;5010213;28;20177;-83
2024/01/08 04:14:30;;;;;;;0.60;0.50;;;-1.00;99.90;;;;;;5025048;28;20189;-83
2024/01/08 04:16:56;;;;;;;3.67;2.15;;;-1.00;99.90;;;;;;5012028;28;20210;-82
2024/01/08 04:19:22;;;;;;;2.25;2.05;;;-1.10;99.90;;;;;;5014181;28;21034;-83
2024/01/08 04:21:47;;;;;;;1.77;1.50;;;-1.00;99.90;;;;;;5012022;28;20183;-80
2024/01/08 04:24:14;;;;;;;1.57;1.30;;;-1.00;99.90;;;;;;5026808;28;20170;-78
2024/01/08 04:26:39;;;;;;;1.17;0.93;;;-1.00;99.90;;;;;;5025839;28;20233;-82
2024/01/08 04:29:05;;;;;;;1.57;1.47;;;-1.00;99.90;;;;;;5019215;28;20213;-85
2024/01/08 04:31:31;;;;;;;3.60;1.13;;;-1.00;99.90;;;;;;5015363;28;21717;-84
2024/01/08 04:33:57;;;;;;;0.68;0.60;;;-1.00;99.90;;;;;;5009636;28;20519;-82
2024/01/08 04:36:22;;;;;;;4.63;2.23;;;-1.00;99.90;;;;;;5011303;28;20197;-82
2024/01/08 04:38:48;;;;;;;1.43;1.20;;;-1.00;99.90;;;;;;5007165;28;20313;-84
2024/01/08 04:41:20;;;;;;;2.00;1.13;;;-1.00;99.90;;;;;;5010932;28;20193;-84
2024/01/08 04:43:47;;;;;;;1.52;1.42;;;-1.00;99.90;;;;;;5009144;28;20326;-82
2024/01/08 04:46:13;;;;;;;3.47;1.67;;;-1.00;99.90;;;;;;5013775;28;20717;-81
2024/01/08 04:48:39;;;;;;;2.40;1.30;;;-1.10;99.90;;;;;;5012359;28;20930;-80
2024/01/08 04:51:04;;;;;;;3.20;1.15;;;-1.00;99.90;;;;;;5006410;28;21478;-82
2024/01/08 04:53:34;;;;;;;2.90;1.40;;;-1.10;99.90;;;;;;5004532;28;20193;-82
2024/01/08 04:55:59;;;;;;;7.28;5.82;;;-1.10;99.90;;;;;;5006337;28;20204;-82
2024/01/08 04:58:25;;;;;;;0.43;0.40;;;-1.10;99.90;;;;;;5007161;28;20209;-82
2024/01/08 05:00:50;;;;;;;1.87;1.77;;;-1.10;99.90;;;;;;5009417;28;20190;-82
2024/01/08 05:03:16;;;;;;;1.13;1.03;;;-1.10;99.90;;;;;;5014196;28;20186;-81
2024/01/08 05:05:42;;;;;;;8.70;2.97;;;-1.20;99.90;;;;;;5015608;28;20194;-84
2024/01/08 05:08:07;;;;;;;1.20;1.15;;;-1.30;99.90;;;;;;5013188;28;20267;-84
2024/01/08 05:10:33;;;;;;;2.40;2.30;;;-1.30;99.90;;;;;;5006196;28;20182;-83
2024/01/08 05:12:58;;;;;;;0.63;0.63;;;-1.40;99.90;;;;;;5012875;28;20182;-79
2024/01/08 05:15:24;;;;;;;1.00;1.00;;;-1.30;99.90;;;;;;5015105;28;20202;-81
2024/01/08 05:17:50;;;;;;;2.30;1.73;;;-1.30;99.90;;;;;;5008672;28;20209;-85
2024/01/08 05:20:15;;;;;;;6.20;3.97;;;-1.40;99.90;;;;;;5012746;28;20182;-83
2024/01/08 05:22:41;;;;;;;14.13;4.07;;;-1.40;99.90;;;;;;5007022;28;20185;-80
2024/01/08 05:25:07;;;;;;;15.73;7.90;;;-1.30;99.90;;;;;;5008095;28;20194;-84
2024/01/08 05:27:33;;;;;;;10.68;3.75;;;-1.40;99.90;;;;;;5007828;28;20221;-82
2024/01/08 05:29:58;;;;;;;15.20;5.00;;;-1.30;99.90;;;;;;5011850;28;20194;-80
2024/01/08 05:32:24;;;;;;;10.80;4.63;;;-1.30;99.90;;;;;;5006282;28;20332;-80
2024/01/08 05:34:49;;;;;;;7.03;3.17;;;-1.30;99.90;;;;;;5004617;28;20190;-80
2024/01/08 05:37:15;;;;;;;7.20;3.83;;;-1.30;99.90;;;;;;5009649;28;20245;-85
2024/01/08 05:39:44;;;;;;;11.87;5.97;;;-1.30;99.90;;;;;;5011212;28;20200;-83
2024/01/08 05:42:09;;;;;;;7.07;3.50;;;-1.30;99.90;;;;;;5007010;28;20456;-81
2024/01/08 05:44:35;;;;;;;3.27;2.07;;;-1.40;99.90;;;;;;4998942;28;20686;-81
2024/01/08 05:47:01;;;;;;;2.20;2.07;;;-1.40;99.90;;;;;;5005434;28;21001;-84
2024/01/08 05:49:26;;;;;;;5.40;2.27;;;-1.40;99.90;;;;;;5002303;28;20864;-80
2024/01/08 05:51:52;;;;;;;12.73;3.10;;;-1.40;99.90;;;;;;5012040;28;20193;-82
2024/01/08 05:54:17;;;;;;;6.23;3.17;;;-1.40;99.90;;;;;;5024950;28;20326;-82
2024/01/08 05:56:43;;;;;;;2.43;2.23;;;-1.40;99.90;;;;;;5020645;28;20202;-85
2024/01/08 05:59:08;;;;;;;1.87;1.40;;;-1.40;99.90;;;;;;5017349;28;20212;-83
2024/01/08 06:01:34;;;;;;;5.93;2.70;;;-1.50;99.90;;;;;;5018037;28;20189;-85
2024/01/08 06:04:00;;;;;;;5.10;2.23;;;-1.40;99.90;;;;;;5010665;28;20194;-86
2024/01/08 06:06:26;;;;;;;0.95;0.73;;;-1.50;99.90;;;;;;5013617;28;20464;-83
2024/01/08 06:08:51;;;;;;;3.77;2.30;;;-1.40;99.90;;;;;;5011238;28;20213;-84
2024/01/08 06:11:17;;;;;;;3.33;2.27;;;-1.40;99.90;;;;;;5021501;28;20264;-83
2024/01/08 06:13:42;;;;;;;1.40;1.10;;;-1.40;99.90;;;;;;5010420;28;20182;-84
2024/01/08 06:16:14;;;;;;;6.80;1.80;;;-1.40;99.90;;;;;;5011291;28;21014;-83
2024/01/08 06:18:40;;;;;;;1.50;0.98;;;-1.40;99.90;;;;;;5020438;28;20204;-80
2024/01/08 06:21:05;;;;;;;3.20;1.73;;;-1.40;99.90;;;;;;5026375;28;20708;-87
2024/01/08 06:23:31;;;;;;;1.73;1.63;;;-1.40;99.90;;;;;;5018302;28;20190;-83
2024/01/08 06:25:56;;;;;;;6.47;2.47;;;-1.50;99.90;;;;;;5017917;28;20261;-85
2024/01/08 06:28:22;;;;;;;5.80;1.97;;;-1.50;99.90;;;;;;5010639;28;20213;-81
2024/01/08 06:30:48;;;;;;;6.03;2.23;;;-1.50;99.90;;;;;;5013739;28;20201;-85
2024/01/08 06:33:13;;;;;;;2.47;1.70;;;-1.50;99.90;;;;;;5003535;28;20276;-84
2024/01/08 06:35:41;;;;;;;11.03;3.03;;;-1.50;99.90;;;;;;5006895;28;20236;-80
2024/01/08 06:38:07;;;;;;;1.90;1.27;;;-1.40;99.90;;;;;;5007650;28;20217;-85
2024/01/08 06:40:32;;;;;;;2.17;1.57;;;-1.30;99.90;;;;;;5010708;28;20189;-83
2024/01/08 06:42:58;;;;;;;0.50;0.50;;;-1.30;99.90;;;;;;5012268;28;20202;-83
2024/01/08 06:45:23;;;;;;;0.97;0.97;;;-1.30;99.90;;;;;;5025514;28;20764;-83
2024/01/08 06:47:49;;;;;;;3.30;3.00;;;-1.30;99.90;;;;;;5014696;28;20711;-85
2024/01/08 06:50:15;;;;;;;6.53;3.67;;;-1.30;99.90;;;;;;5006103;28;20197;-80
2024/01/08 06:52:40;;;;;;;8.10;2.87;;;-1.20;99.90;;;;;;5007414;28;20679;-81
2024/01/08 06:55:07;;;;;;;4.17;2.10;;;-1.20;99.90;;;;;;5011023;28;20437;-83
2024/01/08 06:57:32;;;;;;;2.05;1.95;;;-1.30;99.90;;;;;;5013078;28;20457;-84
2024/01/08 06:59:58;;;;;;;4.57;4.17;;;-1.40;99.90;;;;;;5008496;28;20194;-83
2024/01/08 07:02:23;;;;;;;4.68;2.40;;;-1.50;99.90;;;;;;5002036;28;20441;-83
2024/01/08 07:04:49;;;;;;;2.63;1.80;;;-1.40;99.90;;;;;;5008389;28;20766;-80
2024/01/08 07:07:14;;;;;;;4.37;2.30;;;-1.30;99.90;;;;;;5002889;28;20241;-80
2024/01/08 07:09:40;;;;;;;3.30;1.57;;;-1.20;99.90;;;;;;5012703;28;20198;-85
2024/01/08 07:12:06;;;;;;;1.83;1.07;;;-1.30;99.90;;;;;;5008689;28;20221;-84
2024/01/08 07:14:32;;;;;;;1.05;0.50;;;-1.30;99.90;;;;;;5010100;28;20675;-85
2024/01/08 07:16:58;;;;;;;2.07;1.30;;;-1.30;99.90;;;;;;5007179;28;20214;-85
2024/01/08 07:19:23;;;;;;;1.00;0.90;;;-1.30;99.90;;;;;;5026270;28;20193;-82
2024/01/08 07:21:49;;;;;;;2.83;1.57;;;-1.30;99.90;;;;;;5013538;28;20195;-87
2024/01/08 07:24:14;;;;;;;1.90;1.80;;;-1.40;99.90;;;;;;5010869;28;20203;-80
2024/01/08 07:26:40;;;;;;;3.53;2.30;;;-1.40;99.90;;;;;;5018731;28;20237;-82
2024/01/08 07:29:06;;;;;;;6.97;0.80;;;-1.30;99.90;;;;;;5006613;28;20198;-83
2024/01/08 07:31:31;;;;;;;2.00;1.90;;;-1.20;99.90;;;;;;5006157;28;20197;-87
2024/01/08 07:33:58;;;;;;;1.63;1.50;;;-1.20;99.90;;;;;;5004835;28;21227;-87
2024/01/08 07:36:23;;;;;;;1.67;1.05;;;-1.20;99.90;;;;;;5008293;28;21108;-85
2024/01/08 07:38:49;;;;;;;1.17;1.07;;;-1.20;99.90;;;;;;5006914;28;20213;-85
2024/01/08 07:41:15;;;;;;;5.03;2.50;;;-1.20;99.90;;;;;;5011233;28;20194;-85
2024/01/08 07:43:40;;;;;;;1.57;1.40;;;-1.30;99.90;;;;;;5006248;28;20191;-84
2024/01/08 07:46:06;;;;;;;4.93;1.57;;;-1.30;99.90;;;;;;5009602;28;20233;-84
2024/01/08 07:48:31;;;;;;;1.53;0.70;;;-1.30;99.90;;;;;;5000430;28;20210;-83
2024/01/08 07:50:57;;;;;;;1.73;0.80;;;-1.40;99.90;;;;;;5012117;28;20196;-81
2024/01/08 07:53:22;;;;;;;4.00;1.53;;;-1.40;99.90;;;;;;5009055;28;20195;-81
2024/01/08 07:55:49;;;;;;;9.10;1.33;;;-1.50;99.90;;;;;;5007720;28;20182;-84
2024/01/08 07:58:15;;;;;;;0.40;0.38;;;-1.50;99.90;;;;;;5002151;28;20216;-81
2024/01/08 08:00:41;;;;;;;1.67;1.58;;;-1.40;99.90;;;;;;5002974;28;20193;-82
2024/01/08 08:03:07;;;;;;;3.80;2.17;;;-1.30;99.90;;;;;;5003294;28;20232;-83
2024/01/08 08:05:33;;;;;;;2.60;0.90;;;-1.30;99.90;;;;;;5000125;28;20278;-83
2024/01/08 08:07:58;;;;;;;0.60;0.50;;;-1.30;99.90;;;;;;5008616;28;20479;-83
2024/01/08 08:10:24;;;;;;;1.97;1.10;;;-1.40;99.90;;;;;;5010262;28;20440;-86
2024/01/08 08:12:51;;;;;;;0.93;0.60;;;-1.40;99.90;;;;;;5003576;28;20195;-84
2024/01/08 08:15:17;;;;;;;2.90;2.15;;;-1.40;99.90;;;;;;5006763;28;20215;-84
2024/01/08 08:17:42;;;;;;;0.63;0.40;;;-1.50;99.90;;;;;;5004446;28;20229;-81
2024/01/08 08:20:10;;;;;;;1.37;1.27;;;-1.40;99.90;;;;;;5008628;28;20256;-83
2024/01/08 08:22:36;;;;;;;0.60;0.60;;;-1.40;99.90;;;;;;5010412;28;20248;-86
2024/01/08 08:25:02;;;;;;;1.90;1.80;;;-1.40;99.90;;;;;;5003971;28;20198;-84
2024/01/08 08:27:28;;;;;;;2.40;1.45;;;-1.40;99.90;;;;;;5005107;28;20308;-84
2024/01/08 08:29:54;;;;;;;1.30;1.20;;;-1.40;99.90;;;;;;5008025;28;20190;-79
2024/01/08 08:32:20;;;;;;;2.45;1.20;;;-1.50;99.90;;;;;;5027781;28;20217;-85
2024/01/08 08:34:45;;;;;;;0.57;0.50;;;-1.40;99.90;;;;;;5006395;28;20308;-82
2024/01/08 08:37:11;;;;;;;1.60;1.50;;;-1.40;99.90;;;;;;5006791;28;20211;-84
2024/01/08 08:39:37;;;;;;;4.50;1.33;;;-1.30;99.90;;;;;;5003827;28;20189;-84
2024/01/08 08:42:04;;;;;;;3.15;1.80;;;-1.30;99.90;;;;;;5002256;28;22439;-84
2024/01/08 08:44:29;;;;;;;2.00;1.85;;;-1.30;99.90;;;;;;5004194;28;20186;-85
2024/01/08 08:46:55;;;;;;;0.70;0.70;;;-1.40;99.90;;;;;;5003883;28;20218;-84
2024/01/08 08:49:21;;;;;;;1.27;1.07;;;-1.40;99.90;;;;;;5005779;28;21677;-82
2024/01/08 08:51:46;;;;;;;2.53;2.03;;;-1.30;99.90;;;;;;5008020;28;20273;-87
2024/01/08 08:54:12;;;;;;;2.47;2.03;;;-1.40;99.90;;;;;;4999222;28;20981;-81
2024/01/08 08:56:37;;;;;;;2.23;1.27;;;-1.30;99.90;;;;;;5008874;28;20197;-79
2024/01/08 08:59:03;;;;;;;2.73;2.20;;;-1.30;99.90;;;;;;5020568;28;20206;-80
2024/01/08 09:01:29;;;;;;;0.60;0.55;;;-1.20;99.90;;;;;;5011426;28;20790;-87
2024/01/08 09:03:55;;;;;;;1.00;1.00;;;-1.30;99.90;;;;;;5005185;28;20277;-83
2024/01/08 09:06:25;;;;;;;3.97;1.17;;;-1.30;99.90;;;;;;5001813;28;20217;-81
2024/01/08 09:08:51;;;;;;;1.35;0.93;;;-1.20;99.90;;;;;;5005054;28;20882;-84
2024/01/08 09:11:18;;;;;;;4.15;1.58;;;-1.20;99.90;;;;;;5005370;28;20256;-86
2024/01/08 09:13:43;;;;;;;1.23;0.82;;;-1.20;99.90;;;;;;5008640;28;20541;-81
2024/01/08 09:16:14;;;;;;;1.13;1.03;;;-1.20;99.90;;;;;;5005771;28;20197;-82
2024/01/08 09:18:40;;;;;;;1.25;1.15;;;-1.20;99.90;;;;;;5010735;28;20186;-81
2024/01/08 09:21:09;;;;;;;2.75;1.33;;;-1.20;99.90;;;;;;5030702;28;20198;-81
2024/01/08 09:23:35;;;;;;;1.65;0.77;;;-1.10;99.90;;;;;;5012776;28;20258;-83
2024/01/08 09:26:00;;;;;;;4.50;2.90;;;-1.10;99.90;;;;;;5014215;28;20246;-83
2024/01/08 09:28:26;;;;;;;12.33;3.50;;;-1.00;99.90;;;;;;5007473;28;21660;-84
2024/01/08 09:30:54;;;;;;;1.43;1.33;;;-1.00;99.90;;;;;;5011259;28;20698;-84
2024/01/08 09:33:20;;;;;;;1.27;1.17;;;-1.00;99.90;;;;;;5012858;28;20280;-81
2024/01/08 09:35:47;;;;;;;4.80;1.90;;;-1.10;99.90;;;;;;5007829;28;21197;-80
2024/01/08 09:38:12;;;;;;;2.35;1.60;;;-1.10;99.90;;;;;;5018984;28;20293;-81
2024/01/08 09:40:38;;;;;;;10.07;3.53;;;-1.10;99.90;;;;;;4999869;28;20202;-84
2024/01/08 09:43:06;;;;;;;1.13;1.03;;;-1.10;99.90;;;;;;5006396;28;20186;-81
2024/01/08 09:45:32;;;;;;;3.10;1.33;;;-1.10;99.90;;;;;;5019294;28;20182;-80
2024/01/08 09:47:58;;;;;;;2.65;1.25;;;-1.10;99.90;;;;;;5008796;28;20328;-82
2024/01/08 09:50:26;;;;;;;3.08;1.08;;;-1.30;99.90;;;;;;5008636;28;20210;-82
2024/01/08 09:52:53;;;;;;;2.45;2.25;;;-1.30;99.90;;;;;;5010912;28;20182;-83
2024/01/08 09:55:18;;;;;;;3.20;1.30;;;-1.30;99.90;;;;;;5009904;28;20810;-84
2024/01/08 09:57:44;;;;;;;1.77;1.63;;;-1.40;99.90;;;;;;5007890;28;20231;-82
2024/01/08 10:00:11;;;;;;;1.30;1.20;;;-1.40;99.90;;;;;;5004248;28;20766;-82
2024/01/08 10:02:38;;;;;;;1.10;0.98;;;-1.40;99.90;;;;;;5001087;28;20224;-82
2024/01/08 10:05:06;;;;;;;2.75;1.80;;;-1.50;99.90;;;;;;5009109;28;20712;-84
2024/01/08 10:07:35;;;;;;;1.67;1.58;;;-1.50;99.90;;;;;;5016038;28;20712;-82
2024/01/08 10:10:02;;;;;;;1.67;1.55;;;-1.40;99.90;;;;;;5008112;28;20193;-82
2024/01/08 10:12:30;;;;;;;1.98;1.38;;;-1.20;99.90;;;;;;5002960;28;20244;-83
2024/01/08 10:14:56;;;;;;;2.33;2.15;;;-1.30;99.90;;;;;;5004617;28;20285;-86
2024/01/08 10:17:23;;;;;;;2.37;1.70;;;-1.40;99.90;;;;;;5005539;28;20218;-83
2024/01/08 10:19:48;;;;;;;2.17;1.33;;;-1.40;99.90;;;;;;5016145;28;20270;-81
2024/01/08 10:22:15;;;;;;;3.67;2.10;;;-1.40;99.90;;;;;;5011640;28;20201;-83
2024/01/08 10:24:42;;;;;;;2.22;1.40;;;-1.40;99.90;;;;;;5010437;28;20201;-82
2024/01/08 10:27:09;;;;;;;4.60;2.90;;;-1.40;99.90;;;;;;5009292;28;20217;-82
2024/01/08 10:29:36;;;;;;;1.27;1.17;;;-1.40;99.90;;;;;;5008643;28;20619;-83
2024/01/08 10:32:02;;;;;;;0.68;0.40;;;-1.50;99.90;;;;;;5007179;28;20198;-83
2024/01/08 10:34:29;;;;;;;1.10;0.93;;;-1.50;99.90;;;;;;5005098;28;20189;-83
2024/01/08 10:36:55;;;;;;;2.45;1.90;;;-1.50;99.90;;;;;;5007623;28;20194;-84
2024/01/08 10:39:22;;;;;;;2.03;1.85;;;-1.60;99.90;;;;;;5000959;28;20455;-84
2024/01/08 10:41:48;;;;;;;5.45;2.42;;;-1.70;99.90;;;;;;5008844;28;20576;-82
2024/01/08 10:44:14;;;;;;;7.70;1.60;;;-1.80;99.90;;;;;;5020540;28;20812;-85
2024/01/08 10:46:59;;;;;;;2.88;1.10;;;-1.80;99.90;;;;;;5006071;28;20495;-86
2024/01/08 10:49:32;;;;;;;0.95;0.85;;;-1.80;99.90;;;;;;5009329;28;20193;-80
2024/01/08 10:51:59;;;;;;;1.70;1.20;;;-1.80;99.90;;;;;;5003293;28;20193;-87
2024/01/08 10:54:36;;;;;;;2.65;0.85;;;-1.70;99.90;;;;;;4998569;28;20186;-81
2024/01/08 10:57:05;;;;;;;2.05;1.35;;;-1.60;99.90;;;;;;5010634;28;20952;-83
2024/01/08 10:59:32;;;;;;;0.63;0.60;;;-1.70;99.90;;;;;;5006727;28;20304;-80
2024/01/08 11:01:57;;;;;;;1.67;1.58;;;-1.60;99.90;;;;;;5007165;28;20183;-79
2024/01/08 11:04:23;;;;;;;4.00;2.73;;;-1.60;99.90;;;;;;5015973;28;20484;-83
2024/01/08 11:06:50;;;;;;;2.50;2.30;;;-1.60;99.90;;;;;;5010317;28;20790;-83
2024/01/08 11:09:29;;;;;;;0.90;0.80;;;-1.60;99.90;;;;;;5007138;28;20189;-80
2024/01/08 11:11:55;;;;;;;1.83;1.13;;;-1.60;99.90;;;;;;5011217;28;20229;-84
2024/01/08 11:14:22;;;;;;;2.30;2.10;;;-1.60;99.90;;;;;;5004023;28;20231;-83
2024/01/08 11:16:48;;;;;;;1.35;1.25;;;-1.70;99.90;;;;;;5006885;28;20296;-80
2024/01/08 11:19:19;;;;;;;1.50;1.40;;;-1.60;99.90;;;;;;5008938;28;20198;-82
2024/01/08 11:21:48;;;;;;;1.75;1.38;;;-1.60;99.90;;;;;;5016071;28;20194;-84
2024/01/08 11:24:14;;;;;;;4.68;1.38;;;-1.70;99.90;;;;;;5012729;28;20554;-81
2024/01/08 11:26:44;;;;;;;1.35;1.15;;;-1.80;99.90;;;;;;5010135;28;21329;-82
2024/01/08 11:29:11;;;;;;;0.90;0.90;;;-1.70;99.90;;;;;;5011100;28;20280;-85
2024/01/08 11:32:14;;;;;;;0.43;0.43;;;-1.80;99.90;;;;;;5010878;28;20190;-81
2024/01/08 11:34:56;;;;;;;5.55;2.08;;;-1.60;99.90;;;;;;5013231;28;20205;-85
2024/01/08 11:37:39;;;;;;;3.53;1.42;;;-1.70;99.90;;;;;;5024471;28;20260;-80
2024/01/08 11:40:11;;;;;;;2.47;2.28;;;-1.70;99.90;;;;;;5019247;28;20221;-84
2024/01/08 11:42:36;;;;;;;0.95;0.85;;;-1.60;99.90;;;;;;5023890;28;20206;-81
2024/01/08 11:45:02;;;;;;;1.33;0.83;;;-1.70;99.90;;;;;;5016295;28;20288;-83
2024/01/08 11:47:32;;;;;;;3.90;0.60;;;-1.70;99.90;;;;;;5013067;28;20244;-80
2024/01/08 11:49:58;;;;;;;0.80;0.40;;;-1.80;99.90;;;;;;5012554;28;20193;-79
2024/01/08 11:52:26;;;;;;;4.63;2.27;;;-1.70;99.90;;;;;;5033509;28;20201;-82
2024/01/08 11:54:54;;;;;;;2.00;1.20;;;-1.80;99.90;;;;;;5015813;28;20385;-81
2024/01/08 11:57:20;;;;;;;1.92;1.75;;;-1.90;99.90;;;;;;5018840;28;20209;-82
2024/01/08 11:59:46;;;;;;;2.57;0.80;;;-1.70;99.90;;;;;;5012294;28;20670;-83
2024/01/08 12:02:17;;;;;;;1.30;1.20;;;-1.60;99.90;;;;;;5013323;28;20444;-81
2024/01/08 12:04:54;;;;;;;2.80;1.23;;;-1.60;99.90;;;;;;5006500;28;20389;-82
2024/01/08 12:07:21;;;;;;;1.20;0.52;;;-1.60;99.90;;;;;;5019979;28;20289;-83
2024/01/08 12:09:48;;;;;;;2.30;0.77;;;-1.60;99.90;;;;;;5017520;28;20299;-86
2024/01/08 12:12:15;;;;;;;1.60;1.40;;;-1.80;99.90;;;;;;5013092;28;20189;-80
2024/01/08 12:14:41;;;;;;;1.85;1.60;;;-1.90;99.90;;;;;;5014176;28;20206;-84
2024/01/08 12:17:07;;;;;;;0.60;0.60;;;-1.90;99.90;;;;;;5016857;28;20316;-85
2024/01/08 12:19:47;;;;;;;4.63;1.02;;;-2.00;99.90;;;;;;5028161;28;20221;-83
2024/01/08 12:22:14;;;;;;;8.65;1.90;;;-1.90;99.90;;;;;;5014995;28;20215;-85
2024/01/08 12:24:40;;;;;;;4.82;1.65;;;-1.80;99.90;;;;;;5010925;28;20655;-84
2024/01/08 12:27:08;;;;;;;0.85;0.85;;;-2.00;99.90;;;;;;5018838;28;20317;-83
2024/01/08 12:29:38;;;;;;;0.50;0.50;;;-2.10;99.90;;;;;;5010143;28;20186;-83
2024/01/08 12:32:04;;;;;;;1.00;1.00;;;-2.00;99.90;;;;;;5011930;28;20270;-83
2024/01/08 12:34:30;;;;;;;2.17;1.05;;;-2.10;99.90;;;;;;5013583;28;20174;-85
2024/01/08 12:37:01;;;;;;;1.50;1.27;;;-2.00;99.90;;;;;;5014606;28;20193;-85
2024/01/08 12:39:30;;;;;;;3.63;1.75;;;-2.00;99.90;;;;;;5000983;28;20229;-82
2024/01/08 12:41:58;;;;;;;2.17;1.40;;;-2.10;99.90;;;;;;5012514;28;20186;-80